Time;durP1;ratioP1;P1;durP2;ratioP2;P2;SDS_P1;SDS_P2;PMS_P1;PMS_P2;Temp;Humidity;BMP_temperature;BMP_pressure;BME280_temperature;BME280_humidity;BME280_pressure;Samples;Min_cycle;Max_cycle;Signal;HPM_P1;HPM_P2
2021/08/07 00:02:25;;;;;;;9.40;2.58;;;;;;;16.03;75.29;100469.53;5051709;28;20049;-65
2021/08/07 00:04:50;;;;;;;9.10;2.78;;;;;;;16.00;75.31;100465.28;5051642;28;20053;-65
2021/08/07 00:07:15;;;;;;;9.57;2.45;;;;;;;15.95;75.65;100456.75;5051857;28;20374;-65
2021/08/07 00:09:41;;;;;;;18.70;3.45;;;;;;;15.93;75.76;100455.16;5050865;28;20398;-65
2021/08/07 00:12:06;;;;;;;10.00;2.80;;;;;;;15.88;75.65;100459.03;5052004;28;20029;-65
2021/08/07 00:14:32;;;;;;;13.40;2.70;;;;;;;15.83;75.83;100449.63;5051915;28;20025;-65
2021/08/07 00:16:57;;;;;;;7.75;3.00;;;;;;;15.83;75.63;100457.63;5052012;28;20443;-65
2021/08/07 00:19:23;;;;;;;8.82;2.80;;;;;;;15.80;75.87;100465.84;5051351;28;20088;-65
2021/08/07 00:21:48;;;;;;;15.38;3.13;;;;;;;15.74;76.00;100459.13;5051710;28;20039;-65
2021/08/07 00:24:14;;;;;;;11.85;2.90;;;;;;;15.71;75.92;100459.38;5051486;28;20017;-65
2021/08/07 00:26:40;;;;;;;14.10;2.80;;;;;;;15.69;76.10;100466.63;5051832;28;20037;-65
2021/08/07 00:29:05;;;;;;;8.68;2.60;;;;;;;15.67;76.29;100463.22;5051175;28;20112;-65
2021/08/07 00:31:30;;;;;;;9.23;2.42;;;;;;;15.66;76.13;100472.19;5050982;28;20059;-65
2021/08/07 00:33:56;;;;;;;17.27;3.05;;;;;;;15.60;76.25;100475.28;5051819;28;20034;-65
2021/08/07 00:36:21;;;;;;;7.15;2.20;;;;;;;15.59;76.27;100469.13;5051607;28;20029;-65
2021/08/07 00:38:46;;;;;;;15.48;2.67;;;;;;;15.54;76.45;100469.44;5051208;28;20029;-65
2021/08/07 00:41:11;;;;;;;12.43;2.60;;;;;;;15.53;76.54;100464.22;5051211;28;20490;-65
2021/08/07 00:43:37;;;;;;;12.57;3.42;;;;;;;15.48;76.42;100461.03;5051033;28;20048;-66
2021/08/07 00:46:02;;;;;;;13.02;3.15;;;;;;;15.45;76.42;100462.09;5050741;28;20032;-65
2021/08/07 00:48:28;;;;;;;11.32;2.92;;;;;;;15.42;76.91;100464.97;5051701;28;20107;-65
2021/08/07 00:50:53;;;;;;;9.60;2.72;;;;;;;15.41;76.50;100463.28;5050998;28;20033;-64
2021/08/07 00:53:19;;;;;;;9.30;2.67;;;;;;;15.37;76.61;100453.78;5050895;28;20100;-65
2021/08/07 00:55:45;;;;;;;10.02;2.53;;;;;;;15.33;76.79;100447.81;5054905;28;20035;-64
2021/08/07 00:58:10;;;;;;;8.23;2.80;;;;;;;15.29;77.09;100448.97;5054709;28;20386;-68
2021/08/07 01:00:35;;;;;;;15.82;3.67;;;;;;;15.25;77.27;100444.84;5054382;28;20033;-65
2021/08/07 01:03:32;;;;;;;15.77;3.08;;;;;;;15.20;77.64;100449.63;5054398;28;20487;-65
2021/08/07 01:06:13;;;;;;;14.02;3.17;;;;;;;15.18;77.82;100447.09;5055072;28;20128;-65
2021/08/07 01:08:46;;;;;;;8.50;2.72;;;;;;;15.19;77.42;100451.47;5054757;28;20028;-65
2021/08/07 01:11:30;;;;;;;15.27;3.58;;;;;;;15.15;77.66;100431.28;5054044;28;20040;-65
2021/08/07 01:14:01;;;;;;;17.25;3.15;;;;;;;15.14;77.62;100437.59;5053802;28;20020;-65
2021/08/07 01:16:34;;;;;;;11.45;2.78;;;;;;;15.10;77.78;100444.09;5054715;28;20025;-64
2021/08/07 01:19:00;;;;;;;10.45;3.05;;;;;;;15.07;77.65;100439.00;5054366;28;20028;-65
2021/08/07 01:21:29;;;;;;;9.45;2.58;;;;;;;15.05;77.62;100448.91;5053716;28;20025;-65
2021/08/07 01:24:22;;;;;;;13.80;3.22;;;;;;;15.04;77.46;100445.38;5054386;28;20108;-66
2021/08/07 01:27:22;;;;;;;15.57;3.63;;;;;;;15.01;77.98;100442.94;5034546;28;20041;-65
2021/08/07 01:29:48;;;;;;;15.65;3.13;;;;;;;15.01;77.62;100440.28;5029943;28;20092;-64
2021/08/07 01:32:14;;;;;;;9.70;2.47;;;;;;;15.02;77.78;100441.97;5045320;28;20028;-64
2021/08/07 01:34:40;;;;;;;9.82;2.80;;;;;;;15.02;77.79;100439.28;5054218;28;20031;-65
2021/08/07 01:37:07;;;;;;;11.13;3.00;;;;;;;15.00;78.02;100438.56;5054244;28;20108;-64
2021/08/07 01:39:32;;;;;;;12.50;3.00;;;;;;;14.98;77.65;100423.63;5054563;28;20106;-64
2021/08/07 01:41:58;;;;;;;10.90;2.55;;;;;;;14.96;78.25;100421.09;5052685;28;20483;-66
2021/08/07 01:44:23;;;;;;;13.18;2.40;;;;;;;14.99;78.33;100425.34;5053970;28;20040;-65
2021/08/07 01:46:56;;;;;;;10.73;2.65;;;;;;;14.97;78.16;100422.78;5053271;28;20059;-62
2021/08/07 01:50:01;;;;;;;16.05;3.50;;;;;;;15.04;77.76;100423.22;5053794;28;20040;-65
2021/08/07 01:52:33;;;;;;;12.30;2.42;;;;;;;15.07;77.78;100415.81;5053719;28;20556;-65
2021/08/07 01:55:02;;;;;;;8.88;2.67;;;;;;;15.08;77.75;100406.88;5054037;28;20056;-65
2021/08/07 01:57:30;;;;;;;9.13;2.67;;;;;;;15.06;78.07;100402.59;5052833;28;20037;-64
2021/08/07 01:59:57;;;;;;;10.43;2.60;;;;;;;15.05;78.18;100408.91;5053695;28;20033;-64
2021/08/07 02:02:23;;;;;;;10.32;2.55;;;;;;;15.04;78.14;100409.88;5053307;28;20440;-64
2021/08/07 02:04:48;;;;;;;11.98;2.72;;;;;;;15.00;78.37;100411.03;5053797;28;20049;-65
2021/08/07 02:07:15;;;;;;;8.38;2.50;;;;;;;14.98;78.58;100405.81;5052746;28;20009;-65
2021/08/07 02:09:40;;;;;;;11.00;2.40;;;;;;;14.95;78.44;100416.72;5053583;28;20045;-64
2021/08/07 02:12:07;;;;;;;12.43;2.70;;;;;;;14.91;78.41;100420.53;5053567;28;20033;-65
2021/08/07 02:14:35;;;;;;;12.75;3.00;;;;;;;14.85;79.03;100412.97;5034330;28;20021;-64
2021/08/07 02:17:02;;;;;;;10.40;2.70;;;;;;;14.87;79.01;100411.03;5054014;28;20029;-64
2021/08/07 02:19:29;;;;;;;12.63;2.70;;;;;;;14.86;79.11;100410.22;5053295;28;20474;-65
2021/08/07 02:21:55;;;;;;;8.45;2.97;;;;;;;14.87;79.50;100411.91;5053853;28;20075;-66
2021/08/07 02:24:26;;;;;;;12.77;2.70;;;;;;;14.86;80.07;100412.88;5053296;28;20104;-66
2021/08/07 02:26:53;;;;;;;10.75;3.05;;;;;;;14.87;80.59;100411.91;5053364;28;20482;-64
2021/08/07 02:29:20;;;;;;;12.50;3.25;;;;;;;14.88;80.80;100416.25;5053106;28;20033;-64
2021/08/07 02:31:46;;;;;;;11.13;3.50;;;;;;;14.86;81.29;100414.66;5052788;28;20474;-65
2021/08/07 02:34:12;;;;;;;15.80;3.63;;;;;;;14.83;81.62;100410.41;5053435;28;20036;-65
2021/08/07 02:36:39;;;;;;;13.40;3.70;;;;;;;14.82;81.87;100416.72;5053487;28;20019;-64
2021/08/07 02:39:05;;;;;;;14.73;3.67;;;;;;;14.84;81.99;100420.09;5052555;28;20021;-65
2021/08/07 02:41:31;;;;;;;12.15;2.80;;;;;;;14.84;81.83;100413.94;5052938;28;20074;-65
2021/08/07 02:43:57;;;;;;;13.45;3.60;;;;;;;14.85;82.29;100421.81;5052862;28;20029;-65
2021/08/07 02:46:23;;;;;;;8.63;3.05;;;;;;;14.88;82.35;100426.09;5053187;28;20025;-65
2021/08/07 02:48:51;;;;;;;12.27;3.83;;;;;;;14.93;82.43;100413.28;5053127;28;20486;-64
2021/08/07 02:51:18;;;;;;;9.30;3.30;;;;;;;14.98;82.63;100413.81;5052351;28;20493;-64
2021/08/07 02:53:44;;;;;;;10.20;3.70;;;;;;;15.04;82.38;100408.06;5052568;28;20475;-64
2021/08/07 02:56:11;;;;;;;16.67;4.30;;;;;;;15.10;82.32;100406.75;5052839;28;20036;-64
2021/08/07 02:58:36;;;;;;;12.55;3.45;;;;;;;15.16;82.09;100395.66;5052569;28;20029;-64
2021/08/07 03:01:02;;;;;;;14.57;3.47;;;;;;;15.20;81.79;100396.28;5034130;28;20036;-64
2021/08/07 03:03:27;;;;;;;10.05;3.10;;;;;;;15.21;81.63;100392.66;5052235;28;20051;-64
2021/08/07 03:05:52;;;;;;;14.85;3.10;;;;;;;15.22;81.70;100405.06;5052489;28;20033;-65
2021/08/07 03:08:18;;;;;;;14.20;3.30;;;;;;;15.23;81.08;100398.75;5034755;28;20021;-64
2021/08/07 03:10:43;;;;;;;9.30;3.08;;;;;;;15.22;80.92;100394.38;5052131;28;20041;-64
2021/08/07 03:13:09;;;;;;;9.82;3.40;;;;;;;15.25;80.83;100396.81;5052061;28;20104;-64
2021/08/07 03:15:35;;;;;;;9.82;3.20;;;;;;;15.25;81.52;100402.16;5052459;28;20107;-64
2021/08/07 03:18:01;;;;;;;14.50;3.30;;;;;;;15.26;80.77;100406.53;5052309;28;20100;-64
2021/08/07 03:20:32;;;;;;;11.13;3.25;;;;;;;15.27;80.79;100405.56;5052104;28;20060;-64
2021/08/07 03:22:59;;;;;;;10.75;2.97;;;;;;;15.29;80.59;100403.63;5051700;28;20021;-64
2021/08/07 03:25:25;;;;;;;7.85;2.83;;;;;;;15.31;80.46;100414.22;5052455;28;20120;-62
2021/08/07 03:27:51;;;;;;;8.52;2.92;;;;;;;15.29;80.59;100410.78;5052116;28;20463;-65
2021/08/07 03:30:17;;;;;;;10.15;2.90;;;;;;;15.24;80.62;100400.44;5051810;28;20035;-64
2021/08/07 03:32:42;;;;;;;10.25;2.80;;;;;;;15.21;80.34;100403.34;5051545;28;20029;-63
2021/08/07 03:35:07;;;;;;;11.02;3.50;;;;;;;15.17;80.47;100391.19;5051789;28;20395;-61
2021/08/07 03:37:33;;;;;;;15.10;2.97;;;;;;;15.11;80.35;100395.13;5051778;28;20124;-64
2021/08/07 03:39:58;;;;;;;9.95;3.30;;;;;;;15.04;80.83;100393.88;5052144;28;20021;-64
2021/08/07 03:42:24;;;;;;;11.23;2.78;;;;;;;14.97;80.88;100404.09;5051852;28;20528;-64
2021/08/07 03:44:49;;;;;;;9.98;2.45;;;;;;;14.94;81.16;100404.34;5049643;28;20033;-64
2021/08/07 03:47:15;;;;;;;9.27;2.83;;;;;;;14.90;80.97;100393.03;5051958;28;20104;-65
2021/08/07 03:49:40;;;;;;;12.00;3.05;;;;;;;14.86;80.96;100394.22;5052092;28;20028;-65
2021/08/07 03:52:06;;;;;;;10.02;2.92;;;;;;;14.83;81.17;100399.72;5052334;28;20017;-64
2021/08/07 03:54:31;;;;;;;13.43;3.17;;;;;;;14.78;81.39;100388.53;5051567;28;20033;-64
2021/08/07 03:56:57;;;;;;;11.88;2.72;;;;;;;14.74;81.36;100389.72;5052141;28;20479;-63
2021/08/07 03:59:22;;;;;;;12.20;2.67;;;;;;;14.72;81.38;100394.31;5052192;28;20090;-63
2021/08/07 04:01:47;;;;;;;10.07;2.63;;;;;;;14.68;81.61;100388.34;5051518;28;20110;-65
2021/08/07 04:04:12;;;;;;;11.23;2.95;;;;;;;14.67;81.76;100386.63;5051375;28;20067;-63
2021/08/07 04:06:38;;;;;;;11.30;3.08;;;;;;;14.66;81.54;100387.59;5051898;28;20025;-64
2021/08/07 04:09:03;;;;;;;9.27;2.80;;;;;;;14.64;81.73;100381.53;5051809;28;20056;-64
2021/08/07 04:11:28;;;;;;;9.18;2.50;;;;;;;14.59;81.66;100380.94;5051517;28;20029;-66
2021/08/07 04:13:54;;;;;;;10.43;2.80;;;;;;;14.63;81.53;100381.59;5052009;28;20508;-63
2021/08/07 04:16:19;;;;;;;12.02;3.03;;;;;;;14.62;81.66;100371.91;5051071;28;20024;-64
2021/08/07 04:18:44;;;;;;;16.80;3.47;;;;;;;14.59;81.69;100375.59;5051680;28;20028;-64
2021/08/07 04:21:10;;;;;;;11.68;2.60;;;;;;;14.57;81.62;100369.56;5051836;28;20371;-65
2021/08/07 04:23:35;;;;;;;7.57;2.72;;;;;;;14.57;81.70;100372.22;5051512;28;20482;-65
2021/08/07 04:26:00;;;;;;;10.15;2.60;;;;;;;14.56;81.71;100371.34;5050775;28;20056;-64
2021/08/07 04:28:26;;;;;;;11.48;3.10;;;;;;;14.54;82.19;100370.63;5051737;28;20025;-64
2021/08/07 04:30:51;;;;;;;8.60;2.60;;;;;;;14.54;82.14;100369.75;5055402;28;20082;-64
2021/08/07 04:33:16;;;;;;;9.15;2.92;;;;;;;14.54;82.38;100372.41;5055412;28;20052;-65
2021/08/07 04:35:43;;;;;;;12.40;2.65;;;;;;;14.55;82.46;100379.44;5054929;28;20021;-65
2021/08/07 04:38:09;;;;;;;11.00;3.30;;;;;;;14.56;82.46;100381.16;5035553;28;20025;-65
2021/08/07 04:40:35;;;;;;;14.35;3.10;;;;;;;14.59;82.68;100372.94;5034573;28;20379;-65
2021/08/07 04:43:00;;;;;;;8.55;2.95;;;;;;;14.62;82.65;100378.09;5035709;28;20032;-69
2021/08/07 04:45:26;;;;;;;9.18;3.22;;;;;;;14.64;82.88;100380.63;5035613;28;20398;-63
2021/08/07 04:47:52;;;;;;;13.23;3.33;;;;;;;14.69;83.06;100386.53;5054087;28;20482;-64
2021/08/07 04:50:17;;;;;;;10.15;3.30;;;;;;;14.72;83.12;100378.34;5055095;28;20036;-63
2021/08/07 04:52:43;;;;;;;18.83;3.28;;;;;;;14.84;82.82;100377.47;5055501;28;20025;-64
2021/08/07 04:55:08;;;;;;;11.88;3.60;;;;;;;14.98;82.44;100371.16;5055489;28;20471;-64
2021/08/07 04:57:33;;;;;;;11.02;3.20;;;;;;;15.11;82.25;100378.28;5054522;28;20029;-64
2021/08/07 04:59:59;;;;;;;11.23;3.03;;;;;;;15.20;81.71;100380.28;5055477;28;20021;-64
2021/08/07 05:02:24;;;;;;;18.20;3.50;;;;;;;15.24;81.44;100369.31;5054569;28;20064;-64
2021/08/07 05:04:49;;;;;;;10.85;3.13;;;;;;;15.26;81.62;100366.53;5055233;28;20018;-64
2021/08/07 05:07:15;;;;;;;9.93;3.22;;;;;;;15.26;81.73;100368.34;5054847;28;20060;-64
2021/08/07 05:09:40;;;;;;;11.35;3.42;;;;;;;15.29;81.41;100357.44;5054685;28;20021;-64
2021/08/07 05:12:05;;;;;;;10.95;3.03;;;;;;;15.29;81.68;100371.63;5054835;28;20037;-63
2021/08/07 05:14:31;;;;;;;12.05;3.65;;;;;;;15.29;81.86;100370.78;5054653;28;20479;-65
2021/08/07 05:16:56;;;;;;;12.45;3.60;;;;;;;15.33;81.88;100370.47;5054486;28;20029;-62
2021/08/07 05:19:21;;;;;;;13.32;3.22;;;;;;;15.33;81.69;100362.47;5047249;28;20033;-64
2021/08/07 05:21:46;;;;;;;9.88;3.30;;;;;;;15.34;81.70;100358.81;5054620;28;20585;-61
2021/08/07 05:24:12;;;;;;;11.13;3.22;;;;;;;15.39;81.60;100358.47;5055032;28;20032;-63
2021/08/07 05:26:37;;;;;;;10.77;3.40;;;;;;;15.42;81.39;100365.41;5054172;28;20032;-62
2021/08/07 05:29:02;;;;;;;9.18;3.47;;;;;;;15.49;81.43;100354.16;5053807;28;20130;-63
2021/08/07 05:31:28;;;;;;;10.70;3.03;;;;;;;15.51;80.87;100359.38;5054533;28;20065;-64
2021/08/07 05:33:53;;;;;;;9.82;3.10;;;;;;;15.55;80.80;100351.06;5053678;28;20082;-63
2021/08/07 05:36:18;;;;;;;15.82;3.15;;;;;;;15.61;80.50;100349.72;5036403;28;20032;-63
2021/08/07 05:38:43;;;;;;;8.18;3.15;;;;;;;15.65;79.63;100366.38;5054287;28;20354;-62
2021/08/07 05:41:09;;;;;;;10.27;3.40;;;;;;;15.73;80.04;100350.66;5053984;28;20065;-64
2021/08/07 05:43:34;;;;;;;9.45;2.67;;;;;;;15.85;79.20;100360.44;5053965;28;20025;-63
2021/08/07 05:45:59;;;;;;;8.00;2.70;;;;;;;16.01;78.69;100360.16;5054429;28;20029;-64
2021/08/07 05:48:25;;;;;;;8.77;3.38;;;;;;;16.05;78.34;100358.94;5049170;28;20124;-63
2021/08/07 05:50:50;;;;;;;13.55;3.03;;;;;;;16.14;78.06;100360.06;5053062;28;20054;-63
2021/08/07 05:53:15;;;;;;;10.40;2.80;;;;;;;16.20;77.85;100362.28;5053149;28;20021;-63
2021/08/07 05:55:41;;;;;;;10.80;3.28;;;;;;;16.31;77.63;100357.94;5054163;28;20025;-63
2021/08/07 05:58:06;;;;;;;9.73;3.22;;;;;;;16.41;77.14;100360.72;5054055;28;20035;-65
2021/08/07 06:00:32;;;;;;;10.20;3.00;;;;;;;16.48;77.34;100359.31;5053972;28;20032;-64
2021/08/07 06:02:57;;;;;;;9.77;3.45;;;;;;;16.54;76.27;100364.19;5053193;28;20051;-64
2021/08/07 06:05:23;;;;;;;12.52;2.97;;;;;;;16.60;75.56;100350.34;5053920;28;20148;-63
2021/08/07 06:07:51;;;;;;;8.88;3.28;;;;;;;16.61;75.44;100356.53;5053856;28;20478;-60
2021/08/07 06:10:16;;;;;;;9.30;2.83;;;;;;;16.65;75.43;100344.63;5053698;28;20025;-61
2021/08/07 06:12:42;;;;;;;10.10;3.20;;;;;;;16.70;75.24;100345.97;5036228;28;20044;-64
2021/08/07 06:15:08;;;;;;;8.52;3.15;;;;;;;16.74;75.74;100351.94;5054010;28;20020;-63
2021/08/07 06:17:33;;;;;;;10.18;3.17;;;;;;;16.70;75.71;100340.63;5049472;28;20044;-63
2021/08/07 06:19:58;;;;;;;10.65;3.15;;;;;;;16.71;75.46;100342.34;5050118;28;20060;-63
2021/08/07 06:22:24;;;;;;;12.05;3.50;;;;;;;16.69;75.24;100336.25;5050249;28;20013;-63
2021/08/07 06:24:49;;;;;;;9.50;3.03;;;;;;;16.60;75.19;100341.44;5049542;28;20056;-63
2021/08/07 06:27:14;;;;;;;9.43;3.20;;;;;;;16.61;74.92;100340.47;5049433;28;20075;-64
2021/08/07 06:29:40;;;;;;;9.60;3.03;;;;;;;16.62;75.92;100340.34;5050108;28;20102;-63
2021/08/07 06:32:05;;;;;;;7.82;2.70;;;;;;;16.68;74.64;100333.69;5049124;28;20131;-64
2021/08/07 06:34:30;;;;;;;7.57;2.70;;;;;;;16.66;74.63;100333.81;5050763;28;20046;-62
2021/08/07 06:36:56;;;;;;;7.97;3.00;;;;;;;16.63;74.95;100330.53;5030383;28;20021;-62
2021/08/07 06:39:21;;;;;;;8.27;2.45;;;;;;;16.64;74.91;100335.75;5044421;28;20335;-63
2021/08/07 06:41:46;;;;;;;8.98;2.33;;;;;;;16.71;74.34;100328.09;5049251;28;20021;-63
2021/08/07 06:44:12;;;;;;;7.90;2.83;;;;;;;16.74;73.87;100341.25;5032428;28;20020;-63
2021/08/07 06:46:37;;;;;;;8.85;2.60;;;;;;;16.90;74.26;100332.84;5032617;28;20526;-63
2021/08/07 06:49:03;;;;;;;10.43;2.67;;;;;;;17.02;73.78;100323.00;5049802;28;20182;-63
2021/08/07 06:51:28;;;;;;;7.00;2.50;;;;;;;17.24;72.87;100335.50;5047039;28;20491;-65
2021/08/07 06:53:53;;;;;;;7.95;2.67;;;;;;;17.41;71.84;100333.28;5049720;28;20111;-63
2021/08/07 06:56:19;;;;;;;7.85;2.60;;;;;;;17.42;70.52;100329.66;5048221;28;20031;-62
2021/08/07 06:58:44;;;;;;;7.88;2.30;;;;;;;17.55;69.94;100324.13;5048942;28;20025;-64
2021/08/07 07:01:09;;;;;;;6.82;2.60;;;;;;;17.69;69.55;100327.34;5049240;28;20024;-64
2021/08/07 07:03:34;;;;;;;7.53;2.60;;;;;;;17.84;68.78;100333.25;5047920;28;20116;-64
2021/08/07 07:06:00;;;;;;;9.43;2.97;;;;;;;17.72;69.29;100325.41;5046721;28;20120;-64
2021/08/07 07:08:25;;;;;;;9.10;2.63;;;;;;;17.63;69.75;100338.56;5049101;28;20312;-62
2021/08/07 07:10:50;;;;;;;10.35;3.13;;;;;;;17.50;70.45;100336.03;5048357;28;20029;-63
2021/08/07 07:13:16;;;;;;;8.88;2.55;;;;;;;17.55;69.93;100338.34;5049511;28;20183;-63
2021/08/07 07:15:41;;;;;;;9.45;2.80;;;;;;;17.48;70.37;100335.34;5048794;28;20100;-63
2021/08/07 07:18:07;;;;;;;9.15;2.95;;;;;;;17.58;70.42;100335.41;5049051;28;20192;-65
2021/08/07 07:20:32;;;;;;;7.30;2.63;;;;;;;17.71;69.69;100342.44;5050189;28;20041;-62
2021/08/07 07:22:57;;;;;;;7.30;2.40;;;;;;;17.76;69.09;100333.06;5047826;28;20405;-63
2021/08/07 07:25:23;;;;;;;9.70;2.67;;;;;;;18.01;68.99;100341.75;5030092;28;20036;-64
2021/08/07 07:27:48;;;;;;;7.05;2.60;;;;;;;18.05;68.16;100342.34;5048287;28;20138;-64
2021/08/07 07:30:14;;;;;;;6.53;2.13;;;;;;;17.99;67.39;100341.00;5046101;28;20347;-65
2021/08/07 07:32:40;;;;;;;7.93;2.30;;;;;;;17.83;68.70;100336.91;5047583;28;20157;-64
2021/08/07 07:35:06;;;;;;;6.07;2.42;;;;;;;17.77;68.59;100349.97;5048191;28;20033;-66
2021/08/07 07:37:32;;;;;;;8.05;2.83;;;;;;;17.69;70.97;100351.44;5047331;28;20035;-66
2021/08/07 07:39:57;;;;;;;7.20;2.22;;;;;;;17.55;71.09;100351.75;5044312;28;20040;-66
2021/08/07 07:42:22;;;;;;;7.95;2.97;;;;;;;17.46;74.07;100345.31;5046443;28;21674;-62
2021/08/07 07:44:48;;;;;;;5.47;2.50;;;;;;;17.38;75.60;100349.59;5048634;28;20041;-62
2021/08/07 07:47:13;;;;;;;8.95;2.95;;;;;;;17.51;74.68;100350.31;5048620;28;20045;-63
2021/08/07 07:49:39;;;;;;;7.30;2.67;;;;;;;17.68;75.90;100348.91;5047796;28;20033;-62
2021/08/07 07:52:04;;;;;;;9.07;2.70;;;;;;;17.64;73.66;100348.28;5048093;28;20430;-64
2021/08/07 07:54:29;;;;;;;9.82;2.80;;;;;;;17.66;76.93;100350.84;5048483;28;20116;-65
2021/08/07 07:56:55;;;;;;;5.13;2.40;;;;;;;17.58;75.07;100346.13;5046905;28;20035;-62
2021/08/07 07:59:20;;;;;;;10.10;3.20;;;;;;;17.65;77.20;100341.13;5044748;28;20319;-63
2021/08/07 08:01:46;;;;;;;6.78;2.75;;;;;;;17.63;76.81;100337.72;5049353;28;20033;-63
2021/08/07 08:04:11;;;;;;;9.55;3.28;;;;;;;17.71;75.95;100346.00;5047965;28;20040;-63
2021/08/07 08:06:36;;;;;;;7.45;2.95;;;;;;;17.58;74.96;100334.56;5052260;28;20120;-65
2021/08/07 08:09:02;;;;;;;7.80;3.22;;;;;;;17.67;75.62;100339.16;5052029;28;20025;-64
2021/08/07 08:11:27;;;;;;;9.10;3.13;;;;;;;17.70;73.79;100330.91;5051798;28;20211;-63
2021/08/07 08:13:53;;;;;;;4.90;2.50;;;;;;;17.93;72.48;100338.81;5052252;28;20095;-64
2021/08/07 08:16:18;;;;;;;8.02;3.28;;;;;;;18.15;72.72;100328.03;5052164;28;20039;-61
2021/08/07 08:18:43;;;;;;;6.82;2.40;;;;;;;18.40;72.48;100333.97;5052052;28;20055;-65
2021/08/07 08:21:09;;;;;;;8.35;2.95;;;;;;;18.60;72.10;100334.06;5052121;28;20021;-64
2021/08/07 08:23:34;;;;;;;6.65;3.05;;;;;;;18.63;71.04;100336.47;5047871;28;20033;-67
2021/08/07 08:26:00;;;;;;;8.60;3.17;;;;;;;18.50;71.70;100329.53;5050417;28;20418;-65
2021/08/07 08:28:25;;;;;;;5.55;2.60;;;;;;;18.49;70.56;100333.19;5049308;28;20422;-63
2021/08/07 08:30:51;;;;;;;6.82;2.80;;;;;;;18.53;70.60;100340.94;5049012;28;20032;-62
2021/08/07 08:33:16;;;;;;;6.35;2.65;;;;;;;18.58;70.46;100333.34;5050343;28;20056;-64
2021/08/07 08:35:42;;;;;;;8.07;2.30;;;;;;;18.71;69.33;100342.03;5049851;28;20107;-65
2021/08/07 08:38:08;;;;;;;6.45;2.17;;;;;;;18.68;66.91;100334.25;5050802;28;20227;-64
2021/08/07 08:40:34;;;;;;;8.38;2.38;;;;;;;18.87;68.53;100321.91;5047385;28;20410;-65
2021/08/07 08:42:59;;;;;;;5.53;1.85;;;;;;;18.82;65.86;100319.63;5047660;28;20053;-63
2021/08/07 08:45:25;;;;;;;9.60;2.30;;;;;;;18.72;65.55;100316.91;5051797;28;20064;-64
2021/08/07 08:47:51;;;;;;;6.25;2.30;;;;;;;18.94;66.11;100307.84;5050639;28;20017;-64
2021/08/07 08:50:21;;;;;;;7.93;2.45;;;;;;;19.19;64.78;100307.50;5051908;28;20036;-66
2021/08/07 08:52:49;;;;;;;9.00;2.47;;;;;;;19.59;64.52;100315.47;5051216;28;20178;-63
2021/08/07 08:55:14;;;;;;;6.65;2.30;;;;;;;19.80;63.50;100309.09;5050196;28;20103;-65
2021/08/07 08:57:40;;;;;;;7.85;2.38;;;;;;;19.94;63.21;100307.88;5050986;28;20084;-64
2021/08/07 09:00:08;;;;;;;5.22;2.20;;;;;;;20.17;61.96;100303.03;5053405;28;20036;-66
2021/08/07 09:02:33;;;;;;;7.80;2.10;;;;;;;20.54;59.72;100299.53;5040541;28;20116;-64
2021/08/07 09:04:59;;;;;;;7.88;2.55;;;;;;;20.99;58.79;100302.47;5044586;28;20443;-67
2021/08/07 09:07:24;;;;;;;6.43;2.22;;;;;;;20.84;59.17;100294.06;5044733;28;20121;-64
2021/08/07 09:09:55;;;;;;;10.43;2.53;;;;;;;21.14;58.67;100286.66;5055765;28;20025;-63
2021/08/07 09:12:37;;;;;;;7.13;2.35;;;;;;;22.06;54.60;100269.34;5050342;28;20057;-66
2021/08/07 09:15:03;;;;;;;7.70;2.13;;;;;;;22.49;54.36;100274.84;5044291;28;20037;-63
2021/08/07 09:17:29;;;;;;;7.75;2.53;;;;;;;23.72;50.58;100266.28;5051504;28;20439;-64
2021/08/07 09:19:56;;;;;;;6.43;2.25;;;;;;;24.28;47.67;100265.56;5050780;28;20459;-65
2021/08/07 09:22:22;;;;;;;6.15;2.00;;;;;;;23.99;49.35;100261.56;5049848;28;20032;-64
2021/08/07 09:25:07;;;;;;;5.68;1.92;;;;;;;23.58;48.92;100261.53;5051421;28;20132;-64
2021/08/07 09:27:42;;;;;;;4.82;2.33;;;;;;;23.11;50.09;100249.47;5050426;28;20021;-64
2021/08/07 09:30:13;;;;;;;5.15;2.40;;;;;;;22.94;51.35;100258.50;5049995;28;20041;-66
2021/08/07 09:32:47;;;;;;;7.50;2.17;;;;;;;23.30;49.96;100259.16;5052555;28;20029;-63
2021/08/07 09:35:15;;;;;;;6.57;2.40;;;;;;;22.95;51.36;100261.03;5053707;28;20104;-64
2021/08/07 09:37:41;;;;;;;5.30;2.05;;;;;;;22.04;53.21;100254.31;5054107;28;20033;-66
2021/08/07 09:40:09;;;;;;;8.40;2.72;;;;;;;21.47;54.81;100257.38;5053858;28;20044;-64
2021/08/07 09:42:50;;;;;;;4.40;1.95;;;;;;;21.37;55.12;100252.03;5053538;28;20033;-64
2021/08/07 09:45:15;;;;;;;7.93;2.60;;;;;;;21.15;55.79;100253.34;5034138;28;20018;-65
2021/08/07 09:47:42;;;;;;;7.65;2.38;;;;;;;20.93;55.73;100250.94;5034074;28;20554;-64
2021/08/07 09:50:25;;;;;;;8.75;2.50;;;;;;;21.75;54.87;100244.66;5034082;28;20030;-66
2021/08/07 09:52:51;;;;;;;6.13;2.22;;;;;;;23.26;52.44;100235.31;5044818;28;20036;-64
2021/08/07 09:55:17;;;;;;;7.78;2.72;;;;;;;24.34;47.20;100243.22;5053129;28;20045;-64
2021/08/07 09:57:42;;;;;;;9.02;2.78;;;;;;;24.11;46.67;100234.16;5053707;28;20057;-63
2021/08/07 10:00:09;;;;;;;8.00;2.65;;;;;;;24.37;47.23;100239.31;5053904;28;20386;-65
2021/08/07 10:02:38;;;;;;;5.22;2.78;;;;;;;24.50;45.86;100236.94;5053254;28;20045;-62
2021/08/07 10:05:11;;;;;;;7.60;2.50;;;;;;;23.92;48.45;100224.56;5052908;28;20128;-63
2021/08/07 10:07:37;;;;;;;6.63;2.47;;;;;;;24.21;46.30;100229.41;5052886;28;20071;-64
2021/08/07 10:10:19;;;;;;;5.85;2.28;;;;;;;24.45;47.00;100235.75;5053538;28;20052;-64
2021/08/07 10:12:45;;;;;;;5.38;2.15;;;;;;;24.35;47.84;100238.66;5052839;28;20109;-63
2021/08/07 10:15:11;;;;;;;4.38;2.10;;;;;;;24.98;44.26;100233.34;5053568;28;20028;-65
2021/08/07 10:17:37;;;;;;;5.78;2.65;;;;;;;24.86;45.09;100232.91;5052857;28;20025;-63
2021/08/07 10:20:03;;;;;;;6.32;2.35;;;;;;;24.77;44.39;100220.41;5053717;28;20343;-66
2021/08/07 10:22:29;;;;;;;6.35;2.35;;;;;;;24.89;43.94;100216.28;5053241;28;20032;-63
2021/08/07 10:25:02;;;;;;;5.60;2.47;;;;;;;25.16;43.68;100220.34;5053273;28;20067;-65
2021/08/07 10:27:29;;;;;;;6.55;2.42;;;;;;;24.74;45.20;100210.78;5051596;28;20024;-64
2021/08/07 10:29:59;;;;;;;6.65;2.63;;;;;;;24.08;48.39;100210.16;5053341;28;20029;-64
2021/08/07 10:32:25;;;;;;;8.55;2.45;;;;;;;23.69;48.14;100207.13;5053337;28;20032;-65
2021/08/07 10:34:52;;;;;;;5.93;2.33;;;;;;;23.70;47.15;100199.88;5052642;28;20029;-64
2021/08/07 10:37:18;;;;;;;5.70;2.58;;;;;;;24.97;45.80;100202.69;5052925;28;20032;-62
2021/08/07 10:39:44;;;;;;;4.22;2.13;;;;;;;25.53;42.10;100190.81;5052732;28;20399;-64
2021/08/07 10:42:14;;;;;;;4.18;2.00;;;;;;;25.85;42.05;100192.34;5052165;28;20100;-62
2021/08/07 10:44:42;;;;;;;5.67;2.10;;;;;;;26.49;39.43;100193.69;5052570;28;20040;-64
2021/08/07 10:47:08;;;;;;;5.10;2.17;;;;;;;26.77;38.97;100186.78;5052554;28;20475;-63
2021/08/07 10:49:38;;;;;;;4.88;1.80;;;;;;;26.82;36.40;100174.28;5052442;28;20029;-65
2021/08/07 10:52:22;;;;;;;5.53;2.10;;;;;;;26.36;37.92;100198.97;5053022;28;20128;-63
2021/08/07 10:54:57;;;;;;;5.50;2.00;;;;;;;26.24;37.86;100181.47;5052627;28;20124;-64
2021/08/07 10:57:36;;;;;;;3.78;1.80;;;;;;;25.84;40.56;100185.28;5052463;28;20449;-68
2021/08/07 11:00:25;;;;;;;4.32;2.15;;;;;;;25.33;39.52;100187.72;5051866;28;20032;-64
2021/08/07 11:03:11;;;;;;;4.65;1.60;;;;;;;25.65;38.32;100186.66;5052386;28;20399;-64
2021/08/07 11:05:51;;;;;;;8.55;2.08;;;;;;;25.15;39.60;100185.31;5052349;28;20031;-62
2021/08/07 11:08:17;;;;;;;4.05;1.80;;;;;;;25.44;41.27;100184.63;5052528;28;20021;-64
2021/08/07 11:10:43;;;;;;;5.97;1.92;;;;;;;25.63;39.77;100185.13;5051735;28;20033;-63
2021/08/07 11:13:23;;;;;;;4.68;1.90;;;;;;;25.85;38.69;100175.25;5052199;28;20039;-63
2021/08/07 11:16:21;;;;;;;6.25;1.85;;;;;;;24.93;39.20;100184.28;5052303;28;20047;-63
2021/08/07 11:18:48;;;;;;;6.55;2.15;;;;;;;25.07;39.67;100175.38;5051903;28;20021;-62
2021/08/07 11:21:51;;;;;;;6.25;1.90;;;;;;;26.12;38.52;100173.78;5052417;28;20040;-64
2021/08/07 11:24:47;;;;;;;4.32;1.80;;;;;;;25.88;36.32;100174.03;5051922;28;20094;-64